Arthog, United Kingdom
Current Conditions -  °F | °C
As of 4:50 AM on Tuesday 27 Jan 2015 (Local Time) from EGOV Reporting Station
Broken Clouds Broken Clouds  
Wind Chill: 39°   Ceiling: 2400
Heat Index: 45°   Visibility: 6mi
Dew Point: 41°   Wind: 10mph
Humidity: 87%   Direction: 270°W
Pressure: 30.39"   Gusts: NA
Location:  52.71°N, 4.01°W
Report Text: EGOV 270450Z 27009KT 9999 FEW014 BKN024 07/05 Q1029 WHT
Loading
Personal Weather Stations






























Interactive Weather Map New forecast layout! Learn more

10-Day Weather Forecast

Advertisements
Track Severe Weather on mobile